Terminal Aerodrome Forecast
Issued by NWS Twin Cities, MN

Home | Current Version | Previous Version | Graphics & Text | Print | Product List | Glossary On
Versions: 1 2 3 4 5 6 7 8 9 10 11 12 13 14 15 16 17 18 19 20 21 22 23 24 25 26 27 28
000
FTUS43 KMPX 201505 AAA
TAFMSP
TAF AMD
KMSP 201505Z 2015/2118 31020G30KT P6SM OVC025
     FM201900 30022G32KT P6SM OVC035
     FM210000 30016G23KT P6SM SCT035 OVC050
     FM210600 29015G22KT P6SM BKN030=

USA.gov is the U.S. government's official web portal to all federal, state and local government web resources and services.